Jersey, Georgia
Current Conditions -  °F | °C
As of 7:45 AM on Friday 24 Oct 2014 (Local Time) from KLZU Reporting Station
Clear Clear  
Wind Chill: 48°   Ceiling: Unl
Heat Index: 48°   Visibility: 10mi
Dew Point: 39°   Wind: 0mph
Humidity: 71%   Direction: NA
Pressure: 30.06"   Gusts: NA
Location:  33.72°N, 83.8°W
Report Text: KLZU 241145Z 00000KT 10SM CLR 09/04 A3006 RMK ATIS T RWY 25 LL
Loading
Personal Weather Stations






























Interactive Weather Map
Tropical Storm Tracking
New forecast layout! Learn more

10-Day Weather Forecast

Advertisements
Track Severe Weather on mobile